Southmont, North Carolina
Current Conditions -  °F | °C
As of 2:15 PM on Friday 28 Nov 2014 (Local Time) from KEXX Reporting Station
Clear Clear  
Wind Chill: 43°   Ceiling: Unl
Heat Index: 43°   Visibility: 10mi
Dew Point: 20°   Wind: 3mph
Humidity: 41%   Direction: 340°NNW
Pressure: 30.29"   Gusts: NA
Location:  35.67°N, 80.27°W
Report Text: KEXX 281915Z AUTO 34003KT 10SM CLR 06/M06 A3029 RMK AO2 T00591064
Loading
Personal Weather Stations






























Interactive Weather Map New forecast layout! Learn more

10-Day Weather Forecast

Advertisements
Track Severe Weather on mobile